Kruishoutem, Belgium
Current Conditions -  °F | °C
As of 1:25 PM on Thursday 30 Oct 2014 (Local Time) from EBCV Reporting Station
Broken Clouds Broken Clouds  
Wind Chill: 61°   Ceiling: 9000
Heat Index: 61°   Visibility: 6mi
Dew Point: 55°   Wind: 8mph
Humidity: 82%   Direction: 190°S
Pressure: 30.18"   Gusts: NA
Location:  50.9°N, 3.53°E
Report Text: EBCV 301225Z AUTO 19007KT 9999 BKN090/// 16/13 Q1022 BLU
Loading
Personal Weather Stations






























Interactive Weather Map
Tropical Storm Tracking
New forecast layout! Learn more

10-Day Weather Forecast

Advertisements
Track Severe Weather on mobile